Flight Track Log - Related Links

Times and Time Zones

All times are in EDT time to prevent confusion due to time zone crossing. See the N265NX flight status page for this flight to view local times or setup timezone preferences in your user account.

Time Position Orientation Groundspeed Altitude Reporting Facility
EDT Latitude Longitude Course Direction KTS MPH feet Rate Location/Type
Mon 09:33:01 AM 36.8003 -119.7539 North 128 147 1,800  Level Oakland Center
Mon 09:34:01 AM 36.8383 -119.7711 340° North 156 180 3,400 1,587 Climbing Oakland Center
Mon 09:35:02 AM 36.8839 -119.7839 347° North 165 190 5,000 1,574 Climbing Oakland Center
Mon 09:36:03 AM 36.9347 -119.7986 347° North 184 212 6,600 1,574 Climbing Oakland Center
Mon 09:37:04 AM 36.9861 -119.8131 347° North 188 216 8,200 1,475 Climbing Oakland Center
Mon 09:38:00 AM 37.1497 -119.8833 North  Level FlightAware Approximate
Mon 09:38:05 AM 37.0400 -119.8289 347° North 197 227 9,600  Level Oakland Center
Mon 09:39:05 AM 37.0964 -119.8442 348° North 198 228 11,200 1,385 Climbing Oakland Center
Mon 09:41:07 AM 37.2086 -119.8744 348° North 210 242 13,800 1,246 Climbing Oakland Center
Mon 09:42:08 AM 37.2664 -119.8917 347° North 213 245 15,000 1,180 Climbing Oakland Center
Mon 09:43:09 AM 37.3256 -119.9078 348° North 216 249 16,200 1,213 Climbing Oakland Center
Mon 09:45:00 AM 37.4518 -119.9553 347° North  Level FlightAware Approximate
Mon 09:45:11 AM 37.4600 -119.9447 347° North 228 262 18,700  Level Oakland Center
Mon 09:47:00 AM 37.5803 -119.9970 322° Northwest  Level FlightAware Approximate
Mon 09:48:14 AM 37.6511 -119.9956 322° Northwest 239 275 21,500  Level Oakland Center
Mon 09:49:14 AM 37.7167 -120.0167 346° North 243 280 22,300 691 Climbing Oakland Center
Mon 09:51:00 AM 37.8370 -120.0634 349° North  Level FlightAware Approximate
Mon 09:53:18 AM 37.9883 -120.0928 347° North 250 288 25,000  Level Oakland Center
Mon 09:54:19 AM 38.0575 -120.1125 347° North 254 292 25,600 328 Climbing Oakland Center
Mon 09:56:21 AM 38.1972 -120.1533 347° North 262 302 26,000 98 Climbing Oakland Center
Mon 09:58:00 AM 38.3208 -120.2006 347° North  Level FlightAware Approximate
Mon 09:58:23 AM 38.3631 -120.1997 348° North 278 320 26,000  Level Oakland Center
Mon 09:59:24 AM 38.4392 -120.2222 347° North 280 322 26,000  Level Oakland Center
Mon 10:01:00 AM 38.5493 -120.2565 346° North  Level FlightAware Approximate
Mon 10:03:28 AM 38.7356 -120.3089 346° North 271 312 26,000  Level Oakland Center
Mon 10:04:29 AM 38.8094 -120.3303 347° North 273 314 26,000  Level Oakland Center
Mon 10:05:30 AM 38.8822 -120.3514 347° North 270 311 26,000  Level Oakland Center
Mon 10:07:32 AM 39.0314 -120.3953 347° North 276 318 26,000  Level Oakland Center
Mon 10:08:00 AM 39.0308 -120.4077 346° North  Level FlightAware Approximate
Mon 10:09:00 AM 39.0996 -120.4295 346° North  Level FlightAware Approximate
Mon 10:09:12 AM 39.1683 -120.4353 347° North 276 318 26,000  Level Seattle Center
Mon 10:10:13 AM 39.2428 -120.4583 347° North 276 318 26,000  Level Seattle Center
Mon 10:10:35 AM 39.2694 -120.4656 348° North 276 318 26,000  Level Oakland Center
Mon 10:11:36 AM 39.3456 -120.4872 348° North 277 319 26,000  Level Oakland Center
Mon 10:12:37 AM 39.4206 -120.5097 347° North 277 319 26,000  Level Oakland Center
Mon 10:13:38 AM 39.4972 -120.5325 347° North 282 325 26,000  Level Oakland Center
Mon 10:14:39 AM 39.5728 -120.5542 348° North 279 321 26,000  Level Oakland Center
Mon 10:16:18 AM 39.7006 -120.5922 347° North 279 321 26,000  Level Seattle Center
Mon 10:16:41 AM 39.7256 -120.6017 344° North 283 326 26,000  Level Oakland Center
Mon 10:18:00 AM 39.8159 -120.6318 346° North  Level FlightAware Approximate
Mon 10:19:20 AM 39.9286 -120.6600 346° North 279 321 26,000  Level Seattle Center
Mon 10:19:44 AM 39.9522 -120.6694 343° North 281 323 26,000  Level Oakland Center
Mon 10:21:00 AM 40.0388 -120.7003 345° North  Level FlightAware Approximate
Mon 10:21:22 AM 40.0797 -120.7061 345° North 279 321 26,000  Level Seattle Center
Mon 10:21:46 AM 40.1075 -120.7158 345° North 281 323 26,000  Level Oakland Center
Mon 10:23:24 AM 40.2475 -120.7561 348° North 282 325 26,000  Level Seattle Center
Mon 10:23:48 AM 40.2742 -120.7658 344° North 282 325 26,000  Level Oakland Center
Mon 10:25:26 AM 40.3978 -120.8042 347° North 280 322 26,000  Level Seattle Center
Mon 10:25:50 AM 40.4261 -120.8125 347° North 279 321 26,000  Level Oakland Center
Mon 10:28:00 AM 40.5327 -120.8471 346° North  Level FlightAware Approximate
Mon 10:28:53 AM 40.6503 -120.8811 346° North 282 325 26,000  Level Oakland Center
Mon 10:29:30 AM 40.6958 -120.8939 348° North 279 321 26,000  Level Seattle Center
Mon 10:30:31 AM 40.7697 -120.9175 346° North 275 316 26,000  Level Seattle Center
Mon 10:31:32 AM 40.8444 -120.9408 347° North 275 316 26,000  Level Seattle Center
Mon 10:33:00 AM 40.9443 -120.9788 344° North  Level FlightAware Approximate
Mon 10:33:34 AM 40.9961 -120.9881 344° North 279 321 26,000  Level Seattle Center
Mon 10:35:35 AM 41.1606 -121.0400 347° North 277 319 26,000  Level Seattle Center
Mon 10:36:36 AM 41.2356 -121.0644 346° North 278 320 26,000  Level Seattle Center
Mon 10:37:37 AM 41.3119 -121.0878 347° North 280 322 26,000  Level Seattle Center
Mon 10:39:39 AM 41.4625 -121.1356 347° North 279 321 26,000  Level Seattle Center
Mon 10:41:41 AM 41.6114 -121.1839 346° North 276 318 26,000  Level Seattle Center
Mon 10:42:42 AM 41.6858 -121.2081 346° North 276 318 26,000  Level Seattle Center
Mon 10:43:43 AM 41.7608 -121.2319 347° North 277 319 26,000  Level Seattle Center
Mon 10:44:44 AM 41.8350 -121.2547 347° North 277 319 26,000  Level Seattle Center
Mon 10:45:45 AM 41.9094 -121.2792 346° North 276 318 26,000  Level Seattle Center
Mon 10:46:46 AM 41.9956 -121.3067 347° North 269 310 26,000  Level Seattle Center
Mon 10:47:47 AM 42.0681 -121.3297 347° North 269 310 26,000  Level Seattle Center
Mon 10:48:48 AM 42.1417 -121.3539 346° North 272 313 26,000  Level Seattle Center
Mon 10:49:49 AM 42.2147 -121.3778 346° North 272 313 26,000  Level Seattle Center
Mon 10:51:00 AM 42.2962 -121.4040 347° North  Level FlightAware Approximate
Mon 10:55:55 AM 42.6625 -121.5222 346° North 277 319 26,000  Level Seattle Center
Mon 10:56:56 AM 42.7369 -121.5464 347° North 274 315 26,000  Level Seattle Center
Mon 10:58:00 AM 42.7784 -121.5608 347° North  Level FlightAware Approximate
Mon 10:58:58 AM 42.9011 -121.6008 346° North 275 316 26,000  Level Seattle Center
Mon 10:59:00 AM 42.8473 -121.5834 346° North  Level FlightAware Approximate
Mon 11:00:00 AM 42.9161 -121.6061 346° North  Level FlightAware Approximate
Mon 11:00:00 AM 42.9723 -121.6243 346° North  Level FlightAware Approximate
Mon 11:01:00 AM 42.9850 -121.6288 346° North  Level FlightAware Approximate
Mon 11:01:00 AM 43.0511 -121.6533 346° North 279 321 26,000  Level Seattle Center
Mon 11:02:00 AM 43.1258 -121.6786 346° North 278 320 26,000  Level Seattle Center
Mon 11:04:00 AM 43.2640 -121.7217 346° North  Level FlightAware Approximate
Mon 11:07:05 AM 43.4989 -121.8022 346° North 272 313 26,000  Level Seattle Center
Mon 11:08:06 AM 43.5736 -121.8281 346° North 274 315 26,000  Level Seattle Center
Mon 11:10:08 AM 43.7336 -121.8814 346° North 273 314 26,000  Level Seattle Center
Mon 11:11:00 AM 43.7452 -121.8862 346° North  Level FlightAware Approximate
Mon 11:12:00 AM 43.8139 -121.9100 346° North  Level FlightAware Approximate
Mon 11:12:10 AM 43.8836 -121.9303 347° North 274 315 26,000  Level Seattle Center
Mon 11:13:11 AM 43.9581 -121.9572 345° North 276 318 26,000  Level Seattle Center
Mon 11:14:11 AM 44.0319 -121.9822 346° North 274 315 26,000  Level Seattle Center
Mon 11:15:12 AM 44.1061 -122.0078 346° North 274 315 26,000  Level Seattle Center
Mon 11:16:13 AM 44.1822 -122.0333 346° North 279 321 26,000  Level Seattle Center
Mon 11:17:14 AM 44.2567 -122.0594 346° North 276 318 26,000  Level Seattle Center
Mon 11:19:00 AM 44.3781 -122.1015 346° North  Level FlightAware Approximate
Mon 11:20:17 AM 44.4822 -122.1381 346° North 277 319 26,000  Level Seattle Center
Mon 11:22:18 AM 44.6489 -122.1964 346° North 280 322 26,000  Level Seattle Center
Mon 11:24:20 AM 44.8003 -122.2511 346° North 281 323 26,000  Level Seattle Center
Mon 11:25:21 AM 44.8775 -122.2786 346° North 280 322 26,000  Level Seattle Center
Mon 11:27:00 AM 44.9909 -122.3185 346° North  Level FlightAware Approximate
Mon 11:29:24 AM 45.1781 -122.3861 346° North 279 321 26,000  Level Seattle Center
Mon 11:31:26 AM 45.3256 -122.4386 346° North 275 316 26,000  Level Seattle Center
Mon 11:32:27 AM 45.3992 -122.4656 346° North 274 315 26,000  Level Seattle Center
Mon 11:34:00 AM 45.4719 -122.4892 346° North  Level FlightAware Approximate
Mon 11:34:00 AM 45.5088 -122.4575 North  Level Estimated
Mon 11:36:30 AM 45.7044 -122.5761 North 271 312 26,000  Level Seattle Center
Mon 11:38:32 AM 45.8536 -122.6167 349° North 273 314 26,000  Level Seattle Center
Mon 11:40:00 AM 45.9558 -122.6390 344° North  Level FlightAware Approximate
Mon 11:40:34 AM 46.0019 -122.6561 344° North 273 314 26,000  Level Seattle Center
Mon 11:41:00 AM 46.0039 -122.4204 North  Level Estimated
Mon 11:41:35 AM 46.0756 -122.6750 350° North 272 313 26,000  Level Seattle Center
Mon 11:42:36 AM 46.1486 -122.6933 350° North 269 310 24,900 -1,091 Descending Seattle Center
Mon 11:43:36 AM 46.2194 -122.7117 350° North 267 307 23,800 -1,230 Descending Seattle Center
Mon 11:44:38 AM 46.2936 -122.7319 349° North 271 312 22,400 -1,770 Descending Seattle Center
Mon 11:46:00 AM 46.3905 -122.7435 350° North  Level FlightAware Approximate
Mon 11:47:40 AM 46.5236 -122.7872 347° North 268 308 16,600  Level Seattle Center
Mon 11:49:00 AM 46.6134 -122.7447 349° North  Level Estimated
Mon 11:49:42 AM 46.6708 -122.8244 349° North 268 308 12,800  Level Seattle Center
Mon 11:50:43 AM 46.7519 -122.8442 351° North 265 305 11,000 -885 Descending Seattle Center
Mon 11:52:00 AM 46.8420 -122.8618 352° North  Level FlightAware Approximate
Mon 11:52:45 AM 46.8894 -122.8803 352° North 250 288 10,100  Level Seattle Center
Mon 11:53:00 AM 46.8785 -122.8706 347° North  Level FlightAware Approximate
Mon 11:53:46 AM 46.9572 -122.8881 356° North 247 284 10,100  Level Seattle Center
Mon 11:54:47 AM 47.0167 -122.8458 26° Northeast 237 273 10,100 -43 Level Seattle Center
Mon 11:56:05 AM 47.0811 -122.7642 41° Northeast 235 270 10,000 -393 Descending Seattle Center
Mon 11:56:49 AM 47.1183 -122.7150 42° Northeast 234 269 9,300 -984 Descending Seattle Center
Mon 11:57:06 AM 47.1300 -122.7022 37° Northeast 233 268 9,000 -590 Descending Seattle Center
Mon 11:58:51 AM 47.2172 -122.5861 42° Northeast 238 274 8,100 -446 Descending Seattle Center
Mon 11:59:07 AM 47.2231 -122.5606 71° East 228 262 8,100  Level Seattle Center
Mon 12:00:52 PM 47.2625 -122.4297 66° East 217 250 8,100 -253 Level Seattle Center
Mon 12:01:53 PM 47.2858 -122.3506 66° East 215 247 7,400 -1,230 Descending Seattle Center
Mon 12:02:54 PM 47.3128 -122.2589 67° East 210 242 5,600 -1,377 Descending Seattle Center
Mon 12:03:55 PM 47.3431 -122.2031 51° Northeast 199 229 4,600 -1,131 Descending Seattle Center
Mon 12:04:56 PM 47.3889 -122.1772 21° North 187 215 3,300 -1,027 Descending Seattle Center
Mon 12:07:00 PM 47.5045 -122.2883 327° Northwest  Level FlightAware Approximate
Mon 12:07:02 PM 47.4614 -122.2467 327° Northwest 135 155 1,400  Level Seattle Center
Mon 12:08:03 PM 47.4922 -122.2722 331° Northwest 119 137 700 -689 Descending Seattle Center

Login

Don't have an account? Register now (free) for customized features, flight alerts, and more!